EGSS/STN METAR and TAF weather

Enter ICAO airport designator
Station Type Date Time Source
EGSS METAR 2020/07/10 19:20 UTC NOAA

EGSS 101920Z AUTO 30005KT 9999 FEW043 16/09 Q1021


Station Type Date Time Source
EGSS Decoded METAR 2020/07/10 19:20 UTC NOAA

Stansted Airport, United Kingdom (EGSS) 51-53N 000-14E 0M
Jul 10, 2020 - 03:20 PM EDT / 2020.07.10 1920 UTC
Wind: from the WNW (300 degrees) at 6 MPH (5 KT):0
Visibility: greater than 7 mile(s):0
Sky conditions: mostly clear
Temperature: 60 F (16 C)
Dew Point: 48 F (9 C)
Relative Humidity: 63%
Pressure (altimeter): 30.15 in. Hg (1021 hPa)
ob: EGSS 101920Z AUTO 30005KT 9999 FEW043 16/09 Q1021
cycle: 19

Station Type Date Time Source
EGSS TAF 2020/07/10 18:09 UTC NOAA

TAF EGSS 101656Z 1018/1124 33010KT 9999 SCT030 PROB30
TEMPO 1103/1106 8000

Example: see airport list